sensor_id;sensor_type;location;lat;lon;timestamp;P1;durP1;ratioP1;P2;durP2;ratioP2
16450;SDS011;12243;42.708;23.310;2022-09-09T00:00:18;8.60;;;7.53;;
16450;SDS011;12243;42.708;23.310;2022-09-09T00:02:50;8.65;;;7.72;;
16450;SDS011;12243;42.708;23.310;2022-09-09T00:05:27;8.88;;;7.97;;
16450;SDS011;12243;42.708;23.310;2022-09-09T00:07:58;8.18;;;7.38;;
16450;SDS011;12243;42.708;23.310;2022-09-09T00:10:29;8.77;;;7.95;;
16450;SDS011;12243;42.708;23.310;2022-09-09T00:13:08;8.85;;;8.15;;
16450;SDS011;12243;42.708;23.310;2022-09-09T00:15:43;10.07;;;8.73;;
16450;SDS011;12243;42.708;23.310;2022-09-09T00:18:21;11.02;;;9.93;;
16450;SDS011;12243;42.708;23.310;2022-09-09T00:20:55;11.18;;;8.85;;
16450;SDS011;12243;42.708;23.310;2022-09-09T00:23:30;11.52;;;8.88;;
16450;SDS011;12243;42.708;23.310;2022-09-09T00:26:07;12.13;;;8.40;;
16450;SDS011;12243;42.708;23.310;2022-09-09T00:28:44;10.23;;;9.13;;
16450;SDS011;12243;42.708;23.310;2022-09-09T00:31:18;11.57;;;9.57;;
16450;SDS011;12243;42.708;23.310;2022-09-09T00:33:49;11.23;;;10.07;;
16450;SDS011;12243;42.708;23.310;2022-09-09T00:36:20;11.23;;;10.13;;
16450;SDS011;12243;42.708;23.310;2022-09-09T00:38:51;11.45;;;10.10;;
16450;SDS011;12243;42.708;23.310;2022-09-09T00:41:22;10.25;;;9.05;;
16450;SDS011;12243;42.708;23.310;2022-09-09T00:44:00;9.98;;;8.38;;
16450;SDS011;12243;42.708;23.310;2022-09-09T00:46:50;11.52;;;8.20;;
16450;SDS011;12243;42.708;23.310;2022-09-09T00:49:32;8.68;;;7.88;;
16450;SDS011;12243;42.708;23.310;2022-09-09T00:52:14;8.98;;;8.18;;
16450;SDS011;12243;42.708;23.310;2022-09-09T00:54:51;11.00;;;8.77;;
16450;SDS011;12243;42.708;23.310;2022-09-09T00:57:28;9.00;;;8.18;;
16450;SDS011;12243;42.708;23.310;2022-09-09T00:59:59;9.20;;;8.40;;
16450;SDS011;12243;42.708;23.310;2022-09-09T01:02:45;9.52;;;8.73;;
16450;SDS011;12243;42.708;23.310;2022-09-09T01:05:20;11.68;;;8.50;;
16450;SDS011;12243;42.708;23.310;2022-09-09T01:07:53;9.25;;;8.13;;
16450;SDS011;12243;42.708;23.310;2022-09-09T01:10:22;10.77;;;8.50;;
16450;SDS011;12243;42.708;23.310;2022-09-09T01:12:55;9.07;;;8.38;;
16450;SDS011;12243;42.708;23.310;2022-09-09T01:15:30;10.60;;;8.68;;
16450;SDS011;12243;42.708;23.310;2022-09-09T01:18:00;10.00;;;9.18;;
16450;SDS011;12243;42.708;23.310;2022-09-09T01:20:37;9.75;;;9.00;;
16450;SDS011;12243;42.708;23.310;2022-09-09T01:23:16;10.75;;;9.85;;
16450;SDS011;12243;42.708;23.310;2022-09-09T01:26:19;10.50;;;9.57;;
16450;SDS011;12243;42.708;23.310;2022-09-09T01:28:54;10.18;;;9.18;;
16450;SDS011;12243;42.708;23.310;2022-09-09T01:31:30;10.93;;;9.45;;
16450;SDS011;12243;42.708;23.310;2022-09-09T01:34:02;10.95;;;9.60;;
16450;SDS011;12243;42.708;23.310;2022-09-09T01:36:35;10.75;;;9.95;;
16450;SDS011;12243;42.708;23.310;2022-09-09T01:39:07;9.93;;;9.02;;
16450;SDS011;12243;42.708;23.310;2022-09-09T01:41:36;10.95;;;9.82;;
16450;SDS011;12243;42.708;23.310;2022-09-09T01:44:08;10.85;;;9.90;;
16450;SDS011;12243;42.708;23.310;2022-09-09T01:46:38;11.02;;;9.93;;
16450;SDS011;12243;42.708;23.310;2022-09-09T01:49:11;10.63;;;9.73;;
16450;SDS011;12243;42.708;23.310;2022-09-09T01:51:39;11.15;;;10.23;;
16450;SDS011;12243;42.708;23.310;2022-09-09T01:54:11;11.68;;;10.48;;
16450;SDS011;12243;42.708;23.310;2022-09-09T01:56:42;12.45;;;11.13;;
16450;SDS011;12243;42.708;23.310;2022-09-09T01:59:33;12.10;;;10.93;;
16450;SDS011;12243;42.708;23.310;2022-09-09T02:02:09;13.00;;;11.73;;
16450;SDS011;12243;42.708;23.310;2022-09-09T02:04:47;13.18;;;11.70;;
16450;SDS011;12243;42.708;23.310;2022-09-09T02:07:24;12.60;;;11.38;;
16450;SDS011;12243;42.708;23.310;2022-09-09T02:10:01;14.52;;;11.82;;
16450;SDS011;12243;42.708;23.310;2022-09-09T02:12:33;13.35;;;12.00;;
16450;SDS011;12243;42.708;23.310;2022-09-09T02:15:03;13.20;;;11.98;;
16450;SDS011;12243;42.708;23.310;2022-09-09T02:17:45;12.60;;;11.27;;
16450;SDS011;12243;42.708;23.310;2022-09-09T02:20:15;12.32;;;11.23;;
16450;SDS011;12243;42.708;23.310;2022-09-09T02:22:54;13.10;;;12.00;;
16450;SDS011;12243;42.708;23.310;2022-09-09T02:25:24;12.60;;;11.45;;
16450;SDS011;12243;42.708;23.310;2022-09-09T02:28:01;13.80;;;12.35;;
16450;SDS011;12243;42.708;23.310;2022-09-09T02:30:30;12.80;;;11.73;;
16450;SDS011;12243;42.708;23.310;2022-09-09T02:33:00;13.20;;;12.10;;
16450;SDS011;12243;42.708;23.310;2022-09-09T02:35:50;14.55;;;13.07;;
16450;SDS011;12243;42.708;23.310;2022-09-09T02:38:21;13.00;;;11.90;;
16450;SDS011;12243;42.708;23.310;2022-09-09T02:41:01;14.80;;;13.50;;
16450;SDS011;12243;42.708;23.310;2022-09-09T02:43:32;13.77;;;12.33;;
16450;SDS011;12243;42.708;23.310;2022-09-09T02:46:02;13.18;;;11.82;;
16450;SDS011;12243;42.708;23.310;2022-09-09T02:48:36;15.15;;;11.30;;
16450;SDS011;12243;42.708;23.310;2022-09-09T02:51:15;13.13;;;11.83;;
16450;SDS011;12243;42.708;23.310;2022-09-09T02:53:50;14.07;;;12.27;;
16450;SDS011;12243;42.708;23.310;2022-09-09T02:56:27;13.93;;;12.70;;
16450;SDS011;12243;42.708;23.310;2022-09-09T02:59:03;13.88;;;11.52;;
16450;SDS011;12243;42.708;23.310;2022-09-09T03:01:36;13.43;;;12.02;;
16450;SDS011;12243;42.708;23.310;2022-09-09T03:04:08;12.50;;;11.48;;
16450;SDS011;12243;42.708;23.310;2022-09-09T03:06:37;13.00;;;11.93;;
16450;SDS011;12243;42.708;23.310;2022-09-09T03:09:18;13.98;;;12.05;;
16450;SDS011;12243;42.708;23.310;2022-09-09T03:11:46;13.35;;;11.95;;
16450;SDS011;12243;42.708;23.310;2022-09-09T03:14:35;14.13;;;12.93;;
16450;SDS011;12243;42.708;23.310;2022-09-09T03:17:03;12.75;;;11.63;;
16450;SDS011;12243;42.708;23.310;2022-09-09T03:19:41;14.27;;;11.55;;
16450;SDS011;12243;42.708;23.310;2022-09-09T03:22:12;13.88;;;12.43;;
16450;SDS011;12243;42.708;23.310;2022-09-09T03:24:43;16.73;;;11.90;;
16450;SDS011;12243;42.708;23.310;2022-09-09T03:27:15;12.98;;;11.88;;
16450;SDS011;12243;42.708;23.310;2022-09-09T03:29:47;17.05;;;12.85;;
16450;SDS011;12243;42.708;23.310;2022-09-09T03:32:23;13.47;;;12.07;;
16450;SDS011;12243;42.708;23.310;2022-09-09T03:34:52;16.27;;;13.05;;
16450;SDS011;12243;42.708;23.310;2022-09-09T03:37:21;13.80;;;12.50;;
16450;SDS011;12243;42.708;23.310;2022-09-09T03:39:53;14.70;;;13.15;;
16450;SDS011;12243;42.708;23.310;2022-09-09T03:42:31;14.45;;;13.23;;
16450;SDS011;12243;42.708;23.310;2022-09-09T03:45:00;13.93;;;12.73;;
16450;SDS011;12243;42.708;23.310;2022-09-09T03:47:31;14.68;;;13.40;;
16450;SDS011;12243;42.708;23.310;2022-09-09T03:50:11;13.90;;;12.60;;
16450;SDS011;12243;42.708;23.310;2022-09-09T03:52:45;14.38;;;13.07;;
16450;SDS011;12243;42.708;23.310;2022-09-09T03:55:19;14.82;;;13.50;;
16450;SDS011;12243;42.708;23.310;2022-09-09T03:57:51;16.30;;;13.55;;
16450;SDS011;12243;42.708;23.310;2022-09-09T04:00:27;15.47;;;13.57;;
16450;SDS011;12243;42.708;23.310;2022-09-09T04:02:55;14.50;;;12.85;;
16450;SDS011;12243;42.708;23.310;2022-09-09T04:05:23;14.45;;;12.85;;
16450;SDS011;12243;42.708;23.310;2022-09-09T04:07:52;16.85;;;12.45;;
16450;SDS011;12243;42.708;23.310;2022-09-09T04:10:24;21.05;;;12.45;;
16450;SDS011;12243;42.708;23.310;2022-09-09T04:12:56;16.02;;;13.75;;
16450;SDS011;12243;42.708;23.310;2022-09-09T04:15:42;14.75;;;12.88;;
16450;SDS011;12243;42.708;23.310;2022-09-09T04:18:29;13.73;;;12.43;;
16450;SDS011;12243;42.708;23.310;2022-09-09T04:21:00;13.97;;;12.43;;
16450;SDS011;12243;42.708;23.310;2022-09-09T04:23:32;15.05;;;13.68;;
16450;SDS011;12243;42.708;23.310;2022-09-09T04:26:05;13.73;;;12.60;;
16450;SDS011;12243;42.708;23.310;2022-09-09T04:28:40;14.55;;;13.18;;
16450;SDS011;12243;42.708;23.310;2022-09-09T04:31:17;14.02;;;12.60;;
16450;SDS011;12243;42.708;23.310;2022-09-09T04:33:51;15.25;;;13.52;;
16450;SDS011;12243;42.708;23.310;2022-09-09T04:36:35;13.52;;;12.25;;
16450;SDS011;12243;42.708;23.310;2022-09-09T04:39:06;13.68;;;12.40;;
16450;SDS011;12243;42.708;23.310;2022-09-09T04:41:38;13.80;;;11.77;;
16450;SDS011;12243;42.708;23.310;2022-09-09T04:44:10;16.65;;;12.85;;
16450;SDS011;12243;42.708;23.310;2022-09-09T04:46:40;12.90;;;11.75;;
16450;SDS011;12243;42.708;23.310;2022-09-09T04:49:09;13.07;;;11.65;;
16450;SDS011;12243;42.708;23.310;2022-09-09T04:51:36;12.68;;;11.23;;
16450;SDS011;12243;42.708;23.310;2022-09-09T04:54:03;16.75;;;11.95;;
16450;SDS011;12243;42.708;23.310;2022-09-09T04:56:34;13.27;;;11.85;;
16450;SDS011;12243;42.708;23.310;2022-09-09T04:59:07;14.88;;;12.10;;
16450;SDS011;12243;42.708;23.310;2022-09-09T05:01:56;13.38;;;11.93;;
16450;SDS011;12243;42.708;23.310;2022-09-09T05:04:28;12.48;;;11.38;;
16450;SDS011;12243;42.708;23.310;2022-09-09T05:06:57;13.45;;;11.52;;
16450;SDS011;12243;42.708;23.310;2022-09-09T05:09:26;12.73;;;11.63;;
16450;SDS011;12243;42.708;23.310;2022-09-09T05:11:57;15.15;;;9.48;;
16450;SDS011;12243;42.708;23.310;2022-09-09T05:14:32;22.85;;;12.10;;
16450;SDS011;12243;42.708;23.310;2022-09-09T05:17:10;17.08;;;11.75;;
16450;SDS011;12243;42.708;23.310;2022-09-09T05:19:47;16.13;;;12.13;;
16450;SDS011;12243;42.708;23.310;2022-09-09T05:22:18;15.00;;;11.80;;
16450;SDS011;12243;42.708;23.310;2022-09-09T05:24:55;15.90;;;11.95;;
16450;SDS011;12243;42.708;23.310;2022-09-09T05:27:26;22.63;;;10.93;;
16450;SDS011;12243;42.708;23.310;2022-09-09T05:29:59;16.42;;;11.25;;
16450;SDS011;12243;42.708;23.310;2022-09-09T05:32:34;14.70;;;10.82;;
16450;SDS011;12243;42.708;23.310;2022-09-09T05:35:05;13.55;;;11.85;;
16450;SDS011;12243;42.708;23.310;2022-09-09T05:37:33;14.40;;;11.45;;
16450;SDS011;12243;42.708;23.310;2022-09-09T05:40:10;15.65;;;11.50;;
16450;SDS011;12243;42.708;23.310;2022-09-09T05:42:39;15.70;;;10.98;;
16450;SDS011;12243;42.708;23.310;2022-09-09T05:45:09;15.80;;;11.48;;
16450;SDS011;12243;42.708;23.310;2022-09-09T05:47:39;18.10;;;11.38;;
16450;SDS011;12243;42.708;23.310;2022-09-09T05:50:10;14.95;;;11.95;;
16450;SDS011;12243;42.708;23.310;2022-09-09T05:52:39;12.32;;;10.75;;
16450;SDS011;12243;42.708;23.310;2022-09-09T05:55:11;20.80;;;12.15;;
16450;SDS011;12243;42.708;23.310;2022-09-09T05:57:41;19.92;;;12.02;;
16450;SDS011;12243;42.708;23.310;2022-09-09T06:00:13;19.40;;;11.68;;
16450;SDS011;12243;42.708;23.310;2022-09-09T06:02:51;15.15;;;11.75;;
16450;SDS011;12243;42.708;23.310;2022-09-09T06:05:20;16.60;;;11.45;;
16450;SDS011;12243;42.708;23.310;2022-09-09T06:07:52;18.67;;;11.85;;
16450;SDS011;12243;42.708;23.310;2022-09-09T06:10:24;15.25;;;10.52;;
16450;SDS011;12243;42.708;23.310;2022-09-09T06:13:06;12.15;;;10.85;;
16450;SDS011;12243;42.708;23.310;2022-09-09T06:15:37;15.52;;;10.57;;
16450;SDS011;12243;42.708;23.310;2022-09-09T06:18:11;14.77;;;10.15;;
16450;SDS011;12243;42.708;23.310;2022-09-09T06:20:38;18.77;;;10.70;;
16450;SDS011;12243;42.708;23.310;2022-09-09T06:23:10;13.15;;;9.50;;
16450;SDS011;12243;42.708;23.310;2022-09-09T06:25:38;10.35;;;9.10;;
16450;SDS011;12243;42.708;23.310;2022-09-09T06:28:18;11.20;;;9.65;;
16450;SDS011;12243;42.708;23.310;2022-09-09T06:30:48;15.52;;;10.27;;
16450;SDS011;12243;42.708;23.310;2022-09-09T06:33:17;11.45;;;9.68;;
16450;SDS011;12243;42.708;23.310;2022-09-09T06:35:50;19.45;;;9.65;;
16450;SDS011;12243;42.708;23.310;2022-09-09T06:38:24;13.73;;;10.77;;
16450;SDS011;12243;42.708;23.310;2022-09-09T06:40:57;11.93;;;10.00;;
16450;SDS011;12243;42.708;23.310;2022-09-09T06:43:30;11.40;;;9.10;;
16450;SDS011;12243;42.708;23.310;2022-09-09T06:46:00;11.05;;;8.18;;
16450;SDS011;12243;42.708;23.310;2022-09-09T06:48:38;12.68;;;8.35;;
16450;SDS011;12243;42.708;23.310;2022-09-09T06:51:14;7.95;;;7.07;;
16450;SDS011;12243;42.708;23.310;2022-09-09T06:53:44;14.05;;;9.80;;
16450;SDS011;12243;42.708;23.310;2022-09-09T06:56:20;9.70;;;7.07;;
16450;SDS011;12243;42.708;23.310;2022-09-09T06:58:53;6.97;;;5.85;;
16450;SDS011;12243;42.708;23.310;2022-09-09T07:01:25;10.50;;;6.55;;
16450;SDS011;12243;42.708;23.310;2022-09-09T07:04:02;7.93;;;6.13;;
16450;SDS011;12243;42.708;23.310;2022-09-09T07:06:34;7.30;;;5.78;;
16450;SDS011;12243;42.708;23.310;2022-09-09T07:09:13;7.88;;;6.65;;
16450;SDS011;12243;42.708;23.310;2022-09-09T07:11:44;10.45;;;6.20;;
16450;SDS011;12243;42.708;23.310;2022-09-09T07:14:17;8.13;;;6.10;;
16450;SDS011;12243;42.708;23.310;2022-09-09T07:17:12;8.20;;;5.68;;
16450;SDS011;12243;42.708;23.310;2022-09-09T07:19:45;13.57;;;6.47;;
16450;SDS011;12243;42.708;23.310;2022-09-09T07:22:16;8.38;;;6.18;;
16450;SDS011;12243;42.708;23.310;2022-09-09T07:24:57;6.60;;;5.95;;
16450;SDS011;12243;42.708;23.310;2022-09-09T07:27:24;10.13;;;6.00;;
16450;SDS011;12243;42.708;23.310;2022-09-09T07:29:52;8.00;;;5.70;;
16450;SDS011;12243;42.708;23.310;2022-09-09T07:32:19;8.68;;;6.20;;
16450;SDS011;12243;42.708;23.310;2022-09-09T07:34:47;6.47;;;5.88;;
16450;SDS011;12243;42.708;23.310;2022-09-09T07:37:15;7.22;;;6.35;;
16450;SDS011;12243;42.708;23.310;2022-09-09T07:39:44;7.57;;;6.40;;
16450;SDS011;12243;42.708;23.310;2022-09-09T07:42:11;8.82;;;7.55;;
16450;SDS011;12243;42.708;23.310;2022-09-09T07:44:40;7.18;;;6.30;;
16450;SDS011;12243;42.708;23.310;2022-09-09T07:47:10;6.78;;;6.18;;
16450;SDS011;12243;42.708;23.310;2022-09-09T07:49:55;10.25;;;6.53;;
16450;SDS011;12243;42.708;23.310;2022-09-09T07:52:26;10.70;;;6.53;;
16450;SDS011;12243;42.708;23.310;2022-09-09T07:54:57;7.70;;;5.88;;
16450;SDS011;12243;42.708;23.310;2022-09-09T07:57:25;6.65;;;5.97;;
16450;SDS011;12243;42.708;23.310;2022-09-09T07:59:53;7.07;;;5.97;;
16450;SDS011;12243;42.708;23.310;2022-09-09T08:02:22;7.63;;;5.70;;
16450;SDS011;12243;42.708;23.310;2022-09-09T08:04:49;7.40;;;5.20;;
16450;SDS011;12243;42.708;23.310;2022-09-09T08:07:18;6.95;;;5.65;;
16450;SDS011;12243;42.708;23.310;2022-09-09T08:09:51;6.35;;;5.85;;
16450;SDS011;12243;42.708;23.310;2022-09-09T08:12:26;5.82;;;4.68;;
16450;SDS011;12243;42.708;23.310;2022-09-09T08:14:53;6.82;;;5.60;;
16450;SDS011;12243;42.708;23.310;2022-09-09T08:17:20;12.30;;;5.90;;
16450;SDS011;12243;42.708;23.310;2022-09-09T08:19:48;8.70;;;5.80;;
16450;SDS011;12243;42.708;23.310;2022-09-09T08:22:21;9.98;;;6.47;;
16450;SDS011;12243;42.708;23.310;2022-09-09T08:24:50;7.05;;;6.30;;
16450;SDS011;12243;42.708;23.310;2022-09-09T08:27:18;9.35;;;5.60;;
16450;SDS011;12243;42.708;23.310;2022-09-09T08:29:45;7.35;;;5.72;;
16450;SDS011;12243;42.708;23.310;2022-09-09T08:32:12;7.53;;;5.60;;
16450;SDS011;12243;42.708;23.310;2022-09-09T08:34:39;7.90;;;5.65;;
16450;SDS011;12243;42.708;23.310;2022-09-09T08:37:12;8.30;;;6.00;;
16450;SDS011;12243;42.708;23.310;2022-09-09T08:39:42;7.00;;;5.97;;
16450;SDS011;12243;42.708;23.310;2022-09-09T08:47:49;6.25;;;5.10;;
16450;SDS011;12243;42.708;23.310;2022-09-09T08:50:37;8.43;;;5.57;;
16450;SDS011;12243;42.708;23.310;2022-09-09T08:53:15;8.45;;;5.78;;
16450;SDS011;12243;42.708;23.310;2022-09-09T08:55:47;6.85;;;5.75;;
16450;SDS011;12243;42.708;23.310;2022-09-09T08:58:21;7.25;;;5.80;;
16450;SDS011;12243;42.708;23.310;2022-09-09T09:03:57;10.38;;;5.43;;
16450;SDS011;12243;42.708;23.310;2022-09-09T09:06:37;6.53;;;5.93;;
16450;SDS011;12243;42.708;23.310;2022-09-09T09:09:16;7.82;;;5.88;;
16450;SDS011;12243;42.708;23.310;2022-09-09T09:11:52;7.80;;;5.43;;
16450;SDS011;12243;42.708;23.310;2022-09-09T09:14:26;7.70;;;5.97;;
16450;SDS011;12243;42.708;23.310;2022-09-09T09:17:01;9.50;;;6.07;;
16450;SDS011;12243;42.708;23.310;2022-09-09T09:19:30;6.43;;;5.93;;
16450;SDS011;12243;42.708;23.310;2022-09-09T09:22:00;9.57;;;6.25;;
16450;SDS011;12243;42.708;23.310;2022-09-09T09:24:34;6.90;;;6.30;;
16450;SDS011;12243;42.708;23.310;2022-09-09T09:27:11;7.72;;;6.15;;
16450;SDS011;12243;42.708;23.310;2022-09-09T09:29:43;6.80;;;6.20;;
16450;SDS011;12243;42.708;23.310;2022-09-09T09:32:15;10.20;;;6.43;;
16450;SDS011;12243;42.708;23.310;2022-09-09T09:34:48;9.30;;;6.88;;
16450;SDS011;12243;42.708;23.310;2022-09-09T09:37:16;14.68;;;6.88;;
16450;SDS011;12243;42.708;23.310;2022-09-09T09:39:47;8.48;;;6.68;;
16450;SDS011;12243;42.708;23.310;2022-09-09T09:42:16;9.40;;;6.90;;
16450;SDS011;12243;42.708;23.310;2022-09-09T09:44:46;8.38;;;6.30;;
16450;SDS011;12243;42.708;23.310;2022-09-09T09:47:18;7.03;;;6.28;;
16450;SDS011;12243;42.708;23.310;2022-09-09T09:50:15;7.60;;;6.50;;
16450;SDS011;12243;42.708;23.310;2022-09-09T09:52:51;10.23;;;7.03;;
16450;SDS011;12243;42.708;23.310;2022-09-09T09:55:21;8.05;;;6.85;;
16450;SDS011;12243;42.708;23.310;2022-09-09T09:57:51;7.18;;;6.57;;
16450;SDS011;12243;42.708;23.310;2022-09-09T10:00:19;8.00;;;6.78;;
16450;SDS011;12243;42.708;23.310;2022-09-09T10:03:00;7.60;;;6.75;;
16450;SDS011;12243;42.708;23.310;2022-09-09T10:05:30;8.88;;;6.63;;
16450;SDS011;12243;42.708;23.310;2022-09-09T10:08:10;6.97;;;6.18;;
16450;SDS011;12243;42.708;23.310;2022-09-09T10:10:48;10.85;;;6.35;;
16450;SDS011;12243;42.708;23.310;2022-09-09T10:13:26;7.57;;;6.30;;
16450;SDS011;12243;42.708;23.310;2022-09-09T10:16:05;8.23;;;6.53;;
16450;SDS011;12243;42.708;23.310;2022-09-09T10:18:50;12.15;;;7.40;;
16450;SDS011;12243;42.708;23.310;2022-09-09T10:21:35;8.63;;;7.40;;
16450;SDS011;12243;42.708;23.310;2022-09-09T10:24:15;8.65;;;6.85;;
16450;SDS011;12243;42.708;23.310;2022-09-09T10:27:03;7.85;;;7.05;;
16450;SDS011;12243;42.708;23.310;2022-09-09T10:29:50;11.05;;;7.25;;
16450;SDS011;12243;42.708;23.310;2022-09-09T10:32:40;11.15;;;7.32;;
16450;SDS011;12243;42.708;23.310;2022-09-09T10:35:13;13.25;;;6.25;;
16450;SDS011;12243;42.708;23.310;2022-09-09T10:37:52;7.07;;;6.47;;
16450;SDS011;12243;42.708;23.310;2022-09-09T10:40:32;12.50;;;7.10;;
16450;SDS011;12243;42.708;23.310;2022-09-09T10:43:18;7.60;;;6.57;;
16450;SDS011;12243;42.708;23.310;2022-09-09T10:46:01;8.10;;;7.38;;
16450;SDS011;12243;42.708;23.310;2022-09-09T10:48:37;8.00;;;7.35;;
16450;SDS011;12243;42.708;23.310;2022-09-09T10:51:19;12.27;;;7.05;;
16450;SDS011;12243;42.708;23.310;2022-09-09T10:53:55;16.67;;;8.00;;
16450;SDS011;12243;42.708;23.310;2022-09-09T10:56:33;10.75;;;7.72;;
16450;SDS011;12243;42.708;23.310;2022-09-09T10:59:06;15.73;;;8.90;;
16450;SDS011;12243;42.708;23.310;2022-09-09T11:01:41;8.23;;;7.25;;
16450;SDS011;12243;42.708;23.310;2022-09-09T11:04:13;9.77;;;7.43;;
16450;SDS011;12243;42.708;23.310;2022-09-09T11:06:47;13.40;;;7.70;;
16450;SDS011;12243;42.708;23.310;2022-09-09T11:09:19;9.63;;;7.45;;
16450;SDS011;12243;42.708;23.310;2022-09-09T11:11:50;13.93;;;7.22;;
16450;SDS011;12243;42.708;23.310;2022-09-09T11:14:21;8.63;;;7.28;;
16450;SDS011;12243;42.708;23.310;2022-09-09T11:16:57;9.23;;;7.47;;
16450;SDS011;12243;42.708;23.310;2022-09-09T11:19:28;11.38;;;7.72;;
16450;SDS011;12243;42.708;23.310;2022-09-09T11:22:00;11.13;;;7.65;;
16450;SDS011;12243;42.708;23.310;2022-09-09T11:24:33;13.82;;;8.13;;
16450;SDS011;12243;42.708;23.310;2022-09-09T11:27:08;10.98;;;7.15;;
16450;SDS011;12243;42.708;23.310;2022-09-09T11:29:52;13.10;;;7.18;;
16450;SDS011;12243;42.708;23.310;2022-09-09T11:36:05;11.65;;;7.40;;
16450;SDS011;12243;42.708;23.310;2022-09-09T11:38:54;14.70;;;7.47;;
16450;SDS011;12243;42.708;23.310;2022-09-09T11:41:33;9.23;;;6.90;;
16450;SDS011;12243;42.708;23.310;2022-09-09T11:44:09;10.98;;;7.35;;
16450;SDS011;12243;42.708;23.310;2022-09-09T11:46:38;12.40;;;7.50;;
16450;SDS011;12243;42.708;23.310;2022-09-09T11:49:21;15.50;;;7.43;;
16450;SDS011;12243;42.708;23.310;2022-09-09T11:51:54;9.02;;;7.38;;
16450;SDS011;12243;42.708;23.310;2022-09-09T11:54:26;10.82;;;7.85;;
16450;SDS011;12243;42.708;23.310;2022-09-09T11:57:14;10.93;;;7.25;;
16450;SDS011;12243;42.708;23.310;2022-09-09T11:59:50;9.23;;;7.55;;
16450;SDS011;12243;42.708;23.310;2022-09-09T12:02:19;13.88;;;7.68;;
16450;SDS011;12243;42.708;23.310;2022-09-09T12:04:54;11.50;;;7.05;;
16450;SDS011;12243;42.708;23.310;2022-09-09T12:07:33;8.20;;;7.60;;
16450;SDS011;12243;42.708;23.310;2022-09-09T12:10:04;9.90;;;7.43;;
16450;SDS011;12243;42.708;23.310;2022-09-09T12:12:46;11.18;;;7.50;;
16450;SDS011;12243;42.708;23.310;2022-09-09T12:15:21;9.90;;;7.80;;
16450;SDS011;12243;42.708;23.310;2022-09-09T12:17:51;14.63;;;7.75;;
16450;SDS011;12243;42.708;23.310;2022-09-09T12:20:20;11.93;;;7.78;;
16450;SDS011;12243;42.708;23.310;2022-09-09T12:25:57;12.77;;;7.68;;
16450;SDS011;12243;42.708;23.310;2022-09-09T12:28:39;8.55;;;7.68;;
16450;SDS011;12243;42.708;23.310;2022-09-09T12:31:21;13.80;;;7.80;;
16450;SDS011;12243;42.708;23.310;2022-09-09T12:33:53;10.60;;;8.07;;
16450;SDS011;12243;42.708;23.310;2022-09-09T12:36:21;10.30;;;7.82;;
16450;SDS011;12243;42.708;23.310;2022-09-09T12:38:54;9.15;;;7.32;;
16450;SDS011;12243;42.708;23.310;2022-09-09T12:41:27;10.68;;;7.75;;
16450;SDS011;12243;42.708;23.310;2022-09-09T12:44:03;11.55;;;7.28;;
16450;SDS011;12243;42.708;23.310;2022-09-09T12:46:33;11.93;;;8.10;;
16450;SDS011;12243;42.708;23.310;2022-09-09T12:49:03;11.77;;;7.97;;
16450;SDS011;12243;42.708;23.310;2022-09-09T12:51:34;16.50;;;9.25;;
16450;SDS011;12243;42.708;23.310;2022-09-09T12:54:04;12.32;;;7.93;;
16450;SDS011;12243;42.708;23.310;2022-09-09T12:56:33;12.40;;;7.97;;
16450;SDS011;12243;42.708;23.310;2022-09-09T12:59:02;9.52;;;8.02;;
16450;SDS011;12243;42.708;23.310;2022-09-09T13:01:30;11.52;;;7.82;;
16450;SDS011;12243;42.708;23.310;2022-09-09T13:04:01;10.77;;;8.60;;
16450;SDS011;12243;42.708;23.310;2022-09-09T13:06:28;9.48;;;7.43;;
16450;SDS011;12243;42.708;23.310;2022-09-09T13:08:57;9.45;;;7.70;;
16450;SDS011;12243;42.708;23.310;2022-09-09T13:11:28;11.38;;;8.48;;
16450;SDS011;12243;42.708;23.310;2022-09-09T13:14:06;12.40;;;7.28;;
16450;SDS011;12243;42.708;23.310;2022-09-09T13:16:54;7.75;;;6.45;;
16450;SDS011;12243;42.708;23.310;2022-09-09T13:19:23;7.82;;;6.80;;
16450;SDS011;12243;42.708;23.310;2022-09-09T13:21:54;11.73;;;6.25;;
16450;SDS011;12243;42.708;23.310;2022-09-09T13:24:28;13.50;;;7.13;;
16450;SDS011;12243;42.708;23.310;2022-09-09T13:26:57;19.77;;;6.97;;
16450;SDS011;12243;42.708;23.310;2022-09-09T13:29:30;13.85;;;5.93;;
16450;SDS011;12243;42.708;23.310;2022-09-09T13:32:03;13.50;;;6.80;;
16450;SDS011;12243;42.708;23.310;2022-09-09T13:34:34;11.68;;;5.55;;
16450;SDS011;12243;42.708;23.310;2022-09-09T13:37:03;11.98;;;6.45;;
16450;SDS011;12243;42.708;23.310;2022-09-09T13:39:32;7.35;;;5.90;;
16450;SDS011;12243;42.708;23.310;2022-09-09T13:42:04;11.52;;;6.18;;
16450;SDS011;12243;42.708;23.310;2022-09-09T13:44:49;9.05;;;6.10;;
16450;SDS011;12243;42.708;23.310;2022-09-09T13:47:32;7.32;;;6.63;;
16450;SDS011;12243;42.708;23.310;2022-09-09T13:50:09;9.73;;;6.10;;
16450;SDS011;12243;42.708;23.310;2022-09-09T13:52:50;8.77;;;5.57;;
16450;SDS011;12243;42.708;23.310;2022-09-09T13:55:24;11.55;;;6.10;;
16450;SDS011;12243;42.708;23.310;2022-09-09T13:57:54;8.02;;;6.05;;
16450;SDS011;12243;42.708;23.310;2022-09-09T14:00:28;7.72;;;6.60;;
16450;SDS011;12243;42.708;23.310;2022-09-09T14:02:57;9.15;;;7.63;;
16450;SDS011;12243;42.708;23.310;2022-09-09T14:05:26;12.93;;;7.25;;
16450;SDS011;12243;42.708;23.310;2022-09-09T14:07:54;9.85;;;7.63;;
16450;SDS011;12243;42.708;23.310;2022-09-09T14:10:21;10.45;;;5.60;;
16450;SDS011;12243;42.708;23.310;2022-09-09T14:12:48;8.30;;;5.82;;
16450;SDS011;12243;42.708;23.310;2022-09-09T14:15:18;12.93;;;5.78;;
16450;SDS011;12243;42.708;23.310;2022-09-09T14:17:47;10.30;;;6.38;;
16450;SDS011;12243;42.708;23.310;2022-09-09T14:20:14;11.20;;;6.30;;
16450;SDS011;12243;42.708;23.310;2022-09-09T14:22:44;13.48;;;6.20;;
16450;SDS011;12243;42.708;23.310;2022-09-09T14:25:14;13.57;;;6.03;;
16450;SDS011;12243;42.708;23.310;2022-09-09T14:27:44;13.15;;;6.28;;
16450;SDS011;12243;42.708;23.310;2022-09-09T14:30:11;8.27;;;5.55;;
16450;SDS011;12243;42.708;23.310;2022-09-09T14:32:38;9.70;;;6.10;;
16450;SDS011;12243;42.708;23.310;2022-09-09T14:35:21;11.40;;;8.07;;
16450;SDS011;12243;42.708;23.310;2022-09-09T14:37:50;13.20;;;7.55;;
16450;SDS011;12243;42.708;23.310;2022-09-09T14:40:17;9.18;;;8.10;;
16450;SDS011;12243;42.708;23.310;2022-09-09T14:42:45;9.45;;;7.97;;
16450;SDS011;12243;42.708;23.310;2022-09-09T14:45:15;11.00;;;7.55;;
16450;SDS011;12243;42.708;23.310;2022-09-09T14:47:42;12.15;;;7.30;;
16450;SDS011;12243;42.708;23.310;2022-09-09T14:50:21;13.13;;;7.20;;
16450;SDS011;12243;42.708;23.310;2022-09-09T14:52:51;15.73;;;9.57;;
16450;SDS011;12243;42.708;23.310;2022-09-09T14:55:22;12.88;;;8.40;;
16450;SDS011;12243;42.708;23.310;2022-09-09T14:57:50;11.32;;;7.32;;
16450;SDS011;12243;42.708;23.310;2022-09-09T15:00:19;15.55;;;7.85;;
16450;SDS011;12243;42.708;23.310;2022-09-09T15:02:47;18.30;;;13.35;;
16450;SDS011;12243;42.708;23.310;2022-09-09T15:05:15;11.93;;;7.20;;
16450;SDS011;12243;42.708;23.310;2022-09-09T15:07:46;9.60;;;6.93;;
16450;SDS011;12243;42.708;23.310;2022-09-09T15:10:13;17.13;;;10.32;;
16450;SDS011;12243;42.708;23.310;2022-09-09T15:12:43;14.57;;;8.80;;